Terminal Aerodrome Forecast
Issued by NWS Wakefield, VA

Home | Current Version | Previous Version | Text Only | Print | Product List | Glossary On
Versions: 1 2 3 4 5 6 7 8 9 10 11 12 13 14 15 16 17 18 19 20
443
FTUS41 KAKQ 241129
TAFSBY
TAF
KSBY 241129Z 2412/2512 06010KT P6SM VCSH OVC050
     FM241400 06012G19KT P6SM VCSH BKN025 OVC050
     FM241600 06014G21KT P6SM VCSH OVC012
     FM241800 06014G22KT P6SM VCSH OVC006
     FM242000 06015G23KT 5SM -RA OVC005=

USA.gov is the U.S. government's official web portal to all federal, state and local government web resources and services.